Hlavní strana
METAR-TAF:

METAR-TAF

Letiště :

Longyearbyen, Norsko

Letiště Longyearbyen

zeměpisná šířka: 78-15N, zeměpisná délka: 015-28E, výška: 2 m

Aktuální stav počasí

Zpráva byla vytvořena před 41 minutami, v 13:50 UTC
Západoseverozápadní vítr 10 kt
Teplota -5°C
Vlhkost vzduchu 63%
Tlak 1011 hPa
Viditelnost 10 km a více
Polojasno ve výšce 1800 ft
Oblačno až skoro zataženo ve výšce 3000 ft

METAR: ENSB 221350Z 30010KT 9999 SCT018 BKN030 M05/M11 Q1011 RMK WIND 1400FT 28011KT

Čas: 16:31 (14:31 UTC)

Předpověď počasí

Předpověď platná od 22 v 12 UTC do 23 v 12 UTC
Západní vítr 8 kt
Viditelnost 10 km a více
Skoro jasno ve výšce 1500 ft
Oblačno až skoro zataženo ve výšce 3000 ft
Dočasný
od 23 v 06 UTC do 23 v 12 UTC
Východojihovýchodní vítr 12 kt

TAF: ENSB 2212/2312 28008KT 9999 FEW015 BKN030 TEMPO 2306/2312 11012KT

Stav a předpovědi počasí z více než 4 000 letišť (zprávy METAR a TAF).

Červené a žluté tečky na mapě představují dostupné meteorologické stanice.

Když kurzor umístíte na tečku, zobrazí se název stanice.

Pak kliknutím zobrazíte stav a předpověď počasí.

Chcete-li změnit mapu, kliknutím na zelené tlačítko se znaménkem +mapu přiblížíte, kliknutím na zelené tlačítko se znaménkem – mapu oddálíte a kliknutím na zelené šipky přejdete na sousední mapy.


METAR-TAF: